sensor_id;sensor_type;location;lat;lon;timestamp;pressure;altitude;pressure_sealevel;temperature
23208;BMP180;11773;52.570;13.052;2023-02-13T00:00:01;103441.00;;;14.00
23208;BMP180;11773;52.570;13.052;2023-02-13T00:02:31;103426.00;;;14.00
23208;BMP180;11773;52.570;13.052;2023-02-13T00:05:00;103434.00;;;14.00
23208;BMP180;11773;52.570;13.052;2023-02-13T00:07:30;103420.00;;;13.90
23208;BMP180;11773;52.570;13.052;2023-02-13T00:09:59;103436.00;;;14.00
23208;BMP180;11773;52.570;13.052;2023-02-13T00:12:29;103424.00;;;13.90
23208;BMP180;11773;52.570;13.052;2023-02-13T00:14:58;103424.00;;;14.00
23208;BMP180;11773;52.570;13.052;2023-02-13T00:17:28;103435.00;;;13.90
23208;BMP180;11773;52.570;13.052;2023-02-13T00:19:57;103432.00;;;13.90
23208;BMP180;11773;52.570;13.052;2023-02-13T00:22:27;103429.00;;;14.00
23208;BMP180;11773;52.570;13.052;2023-02-13T00:24:56;103434.00;;;14.00
23208;BMP180;11773;52.570;13.052;2023-02-13T00:27:26;103427.00;;;14.00
23208;BMP180;11773;52.570;13.052;2023-02-13T00:29:55;103431.00;;;14.00
23208;BMP180;11773;52.570;13.052;2023-02-13T00:32:25;103425.00;;;14.00
23208;BMP180;11773;52.570;13.052;2023-02-13T00:34:54;103423.00;;;14.00
23208;BMP180;11773;52.570;13.052;2023-02-13T00:37:24;103417.00;;;14.00
23208;BMP180;11773;52.570;13.052;2023-02-13T00:39:54;103422.00;;;14.00
23208;BMP180;11773;52.570;13.052;2023-02-13T00:42:23;103423.00;;;14.00
23208;BMP180;11773;52.570;13.052;2023-02-13T00:44:54;103417.00;;;14.00
23208;BMP180;11773;52.570;13.052;2023-02-13T00:47:23;103418.00;;;14.00
23208;BMP180;11773;52.570;13.052;2023-02-13T00:49:53;103422.00;;;14.00
23208;BMP180;11773;52.570;13.052;2023-02-13T00:52:22;103412.00;;;14.00
23208;BMP180;11773;52.570;13.052;2023-02-13T00:54:52;103418.00;;;14.00
23208;BMP180;11773;52.570;13.052;2023-02-13T00:57:21;103410.00;;;13.90
23208;BMP180;11773;52.570;13.052;2023-02-13T00:59:51;103421.00;;;13.90
23208;BMP180;11773;52.570;13.052;2023-02-13T01:02:20;103418.00;;;13.90
23208;BMP180;11773;52.570;13.052;2023-02-13T01:04:50;103413.00;;;13.90
23208;BMP180;11773;52.570;13.052;2023-02-13T01:07:19;103413.00;;;13.90
23208;BMP180;11773;52.570;13.052;2023-02-13T01:09:48;103415.00;;;13.90
23208;BMP180;11773;52.570;13.052;2023-02-13T01:12:18;103420.00;;;13.90
23208;BMP180;11773;52.570;13.052;2023-02-13T01:14:47;103423.00;;;13.90
23208;BMP180;11773;52.570;13.052;2023-02-13T01:17:17;103425.00;;;13.90
23208;BMP180;11773;52.570;13.052;2023-02-13T01:19:47;103420.00;;;13.90
23208;BMP180;11773;52.570;13.052;2023-02-13T01:22:16;103432.00;;;13.90
23208;BMP180;11773;52.570;13.052;2023-02-13T01:24:46;103423.00;;;13.90
23208;BMP180;11773;52.570;13.052;2023-02-13T01:27:15;103421.00;;;13.90
23208;BMP180;11773;52.570;13.052;2023-02-13T01:29:45;103420.00;;;13.90
23208;BMP180;11773;52.570;13.052;2023-02-13T01:32:15;103420.00;;;13.90
23208;BMP180;11773;52.570;13.052;2023-02-13T01:34:44;103416.00;;;13.90
23208;BMP180;11773;52.570;13.052;2023-02-13T01:37:14;103425.00;;;13.90
23208;BMP180;11773;52.570;13.052;2023-02-13T01:39:43;103432.00;;;13.90
23208;BMP180;11773;52.570;13.052;2023-02-13T01:42:20;103422.00;;;13.90
23208;BMP180;11773;52.570;13.052;2023-02-13T01:44:53;103412.00;;;13.90
23208;BMP180;11773;52.570;13.052;2023-02-13T01:47:42;103412.00;;;13.90
23208;BMP180;11773;52.570;13.052;2023-02-13T01:50:35;103410.00;;;13.80
23208;BMP180;11773;52.570;13.052;2023-02-13T01:53:17;103411.00;;;13.80
23208;BMP180;11773;52.570;13.052;2023-02-13T01:55:56;103410.00;;;13.80
23208;BMP180;11773;52.570;13.052;2023-02-13T01:58:25;103404.00;;;13.80
23208;BMP180;11773;52.570;13.052;2023-02-13T02:00:57;103419.00;;;13.80
23208;BMP180;11773;52.570;13.052;2023-02-13T02:03:37;103424.00;;;13.80
23208;BMP180;11773;52.570;13.052;2023-02-13T02:06:10;103422.00;;;13.80
23208;BMP180;11773;52.570;13.052;2023-02-13T02:08:40;103413.00;;;13.80
23208;BMP180;11773;52.570;13.052;2023-02-13T02:11:19;103402.00;;;13.80
23208;BMP180;11773;52.570;13.052;2023-02-13T02:13:47;103411.00;;;13.80
23208;BMP180;11773;52.570;13.052;2023-02-13T02:16:16;103415.00;;;13.80
23208;BMP180;11773;52.570;13.052;2023-02-13T02:18:46;103412.00;;;13.80
23208;BMP180;11773;52.570;13.052;2023-02-13T02:21:44;103411.00;;;13.80
23208;BMP180;11773;52.570;13.052;2023-02-13T02:24:56;103421.00;;;13.70
23208;BMP180;11773;52.570;13.052;2023-02-13T02:31:02;103430.00;;;13.60
23208;BMP180;11773;52.570;13.052;2023-02-13T02:42:09;103436.00;;;13.50
23208;BMP180;11773;52.570;13.052;2023-02-13T02:47:33;103419.00;;;13.60
23208;BMP180;11773;52.570;13.052;2023-02-13T02:50:31;103413.00;;;13.50
23208;BMP180;11773;52.570;13.052;2023-02-13T02:58:50;103413.00;;;13.50
23208;BMP180;11773;52.570;13.052;2023-02-13T03:01:37;103426.00;;;13.50
23208;BMP180;11773;52.570;13.052;2023-02-13T03:04:40;103419.00;;;13.50
23208;BMP180;11773;52.570;13.052;2023-02-13T03:07:28;103427.00;;;13.50
23208;BMP180;11773;52.570;13.052;2023-02-13T03:10:05;103428.00;;;13.60
23208;BMP180;11773;52.570;13.052;2023-02-13T03:13:03;103418.00;;;13.60
23208;BMP180;11773;52.570;13.052;2023-02-13T03:15:53;103412.00;;;13.50
23208;BMP180;11773;52.570;13.052;2023-02-13T03:18:45;103415.00;;;13.50
23208;BMP180;11773;52.570;13.052;2023-02-13T03:21:46;103409.00;;;13.50
23208;BMP180;11773;52.570;13.052;2023-02-13T03:39:59;103417.00;;;13.40
23208;BMP180;11773;52.570;13.052;2023-02-13T03:45:19;103411.00;;;13.40
23208;BMP180;11773;52.570;13.052;2023-02-13T03:48:08;103423.00;;;13.40
23208;BMP180;11773;52.570;13.052;2023-02-13T03:50:42;103420.00;;;13.40
23208;BMP180;11773;52.570;13.052;2023-02-13T03:53:15;103404.00;;;13.40
23208;BMP180;11773;52.570;13.052;2023-02-13T03:55:47;103401.00;;;13.40
23208;BMP180;11773;52.570;13.052;2023-02-13T03:58:41;103400.00;;;13.40
23208;BMP180;11773;52.570;13.052;2023-02-13T04:01:33;103404.00;;;13.40
23208;BMP180;11773;52.570;13.052;2023-02-13T04:04:20;103409.00;;;13.40
23208;BMP180;11773;52.570;13.052;2023-02-13T04:07:04;103399.00;;;13.40
23208;BMP180;11773;52.570;13.052;2023-02-13T04:09:31;103395.00;;;13.40
23208;BMP180;11773;52.570;13.052;2023-02-13T04:12:23;103396.00;;;13.40
23208;BMP180;11773;52.570;13.052;2023-02-13T04:17:41;103401.00;;;13.40
23208;BMP180;11773;52.570;13.052;2023-02-13T04:20:12;103393.00;;;13.40
23208;BMP180;11773;52.570;13.052;2023-02-13T04:22:44;103391.00;;;13.40
23208;BMP180;11773;52.570;13.052;2023-02-13T04:25:16;103393.00;;;13.40
23208;BMP180;11773;52.570;13.052;2023-02-13T04:27:47;103392.00;;;13.40
23208;BMP180;11773;52.570;13.052;2023-02-13T04:30:16;103394.00;;;13.40
23208;BMP180;11773;52.570;13.052;2023-02-13T04:32:46;103391.00;;;13.40
23208;BMP180;11773;52.570;13.052;2023-02-13T04:35:15;103379.00;;;13.50
23208;BMP180;11773;52.570;13.052;2023-02-13T04:37:45;103383.00;;;13.50
23208;BMP180;11773;52.570;13.052;2023-02-13T04:40:14;103387.00;;;13.50
23208;BMP180;11773;52.570;13.052;2023-02-13T04:42:46;103381.00;;;13.50
23208;BMP180;11773;52.570;13.052;2023-02-13T04:45:16;103370.00;;;13.50
23208;BMP180;11773;52.570;13.052;2023-02-13T04:47:54;103384.00;;;13.50
23208;BMP180;11773;52.570;13.052;2023-02-13T04:50:25;103389.00;;;13.50
23208;BMP180;11773;52.570;13.052;2023-02-13T04:52:56;103381.00;;;13.40
23208;BMP180;11773;52.570;13.052;2023-02-13T04:55:27;103386.00;;;13.40
23208;BMP180;11773;52.570;13.052;2023-02-13T04:57:57;103380.00;;;13.40
23208;BMP180;11773;52.570;13.052;2023-02-13T05:00:28;103393.00;;;13.50
23208;BMP180;11773;52.570;13.052;2023-02-13T05:03:12;103390.00;;;13.40
23208;BMP180;11773;52.570;13.052;2023-02-13T05:05:41;103380.00;;;13.40
23208;BMP180;11773;52.570;13.052;2023-02-13T05:08:11;103377.00;;;13.40
23208;BMP180;11773;52.570;13.052;2023-02-13T05:10:41;103396.00;;;13.40
23208;BMP180;11773;52.570;13.052;2023-02-13T05:13:10;103387.00;;;13.40
23208;BMP180;11773;52.570;13.052;2023-02-13T05:15:41;103395.00;;;13.40
23208;BMP180;11773;52.570;13.052;2023-02-13T05:18:10;103380.00;;;13.40
23208;BMP180;11773;52.570;13.052;2023-02-13T05:20:40;103388.00;;;13.40
23208;BMP180;11773;52.570;13.052;2023-02-13T05:23:13;103379.00;;;13.40
23208;BMP180;11773;52.570;13.052;2023-02-13T05:25:51;103380.00;;;13.30
23208;BMP180;11773;52.570;13.052;2023-02-13T05:28:21;103385.00;;;13.40
23208;BMP180;11773;52.570;13.052;2023-02-13T05:31:08;103389.00;;;13.30
23208;BMP180;11773;52.570;13.052;2023-02-13T05:33:38;103381.00;;;13.30
23208;BMP180;11773;52.570;13.052;2023-02-13T05:36:08;103385.00;;;13.30
23208;BMP180;11773;52.570;13.052;2023-02-13T05:38:57;103381.00;;;13.30
23208;BMP180;11773;52.570;13.052;2023-02-13T05:41:26;103386.00;;;13.30
23208;BMP180;11773;52.570;13.052;2023-02-13T05:43:56;103380.00;;;13.20
23208;BMP180;11773;52.570;13.052;2023-02-13T05:46:25;103391.00;;;13.20
23208;BMP180;11773;52.570;13.052;2023-02-13T05:48:55;103375.00;;;13.20
23208;BMP180;11773;52.570;13.052;2023-02-13T05:51:24;103384.00;;;13.20
23208;BMP180;11773;52.570;13.052;2023-02-13T05:53:54;103394.00;;;13.20
23208;BMP180;11773;52.570;13.052;2023-02-13T05:56:23;103394.00;;;13.20
23208;BMP180;11773;52.570;13.052;2023-02-13T05:58:55;103392.00;;;13.20
23208;BMP180;11773;52.570;13.052;2023-02-13T06:01:25;103390.00;;;13.20
23208;BMP180;11773;52.570;13.052;2023-02-13T06:03:54;103387.00;;;13.20
23208;BMP180;11773;52.570;13.052;2023-02-13T06:06:26;103400.00;;;13.20
23208;BMP180;11773;52.570;13.052;2023-02-13T06:08:56;103416.00;;;13.20
23208;BMP180;11773;52.570;13.052;2023-02-13T06:11:25;103419.00;;;13.20
23208;BMP180;11773;52.570;13.052;2023-02-13T06:13:54;103411.00;;;13.20
23208;BMP180;11773;52.570;13.052;2023-02-13T06:16:24;103417.00;;;13.20
23208;BMP180;11773;52.570;13.052;2023-02-13T06:18:54;103416.00;;;13.20
23208;BMP180;11773;52.570;13.052;2023-02-13T06:21:23;103422.00;;;13.20
23208;BMP180;11773;52.570;13.052;2023-02-13T06:23:53;103402.00;;;13.10
23208;BMP180;11773;52.570;13.052;2023-02-13T06:26:22;103404.00;;;13.10
23208;BMP180;11773;52.570;13.052;2023-02-13T06:28:52;103403.00;;;13.10
23208;BMP180;11773;52.570;13.052;2023-02-13T06:31:21;103402.00;;;13.10
23208;BMP180;11773;52.570;13.052;2023-02-13T06:33:51;103410.00;;;13.10
23208;BMP180;11773;52.570;13.052;2023-02-13T06:36:20;103422.00;;;13.10
23208;BMP180;11773;52.570;13.052;2023-02-13T06:38:50;103404.00;;;13.10
23208;BMP180;11773;52.570;13.052;2023-02-13T06:41:19;103420.00;;;13.10
23208;BMP180;11773;52.570;13.052;2023-02-13T06:43:49;103413.00;;;13.10
23208;BMP180;11773;52.570;13.052;2023-02-13T06:46:19;103433.00;;;13.10
23208;BMP180;11773;52.570;13.052;2023-02-13T06:48:48;103421.00;;;13.10
23208;BMP180;11773;52.570;13.052;2023-02-13T06:51:18;103425.00;;;13.10
23208;BMP180;11773;52.570;13.052;2023-02-13T06:53:47;103421.00;;;13.10
23208;BMP180;11773;52.570;13.052;2023-02-13T06:56:17;103437.00;;;13.10
23208;BMP180;11773;52.570;13.052;2023-02-13T06:58:47;103433.00;;;13.10
23208;BMP180;11773;52.570;13.052;2023-02-13T07:01:16;103436.00;;;13.10
23208;BMP180;11773;52.570;13.052;2023-02-13T07:03:46;103432.00;;;13.10
23208;BMP180;11773;52.570;13.052;2023-02-13T07:06:20;103434.00;;;13.10
23208;BMP180;11773;52.570;13.052;2023-02-13T07:08:49;103444.00;;;13.10
23208;BMP180;11773;52.570;13.052;2023-02-13T07:11:23;103434.00;;;13.10
23208;BMP180;11773;52.570;13.052;2023-02-13T07:13:53;103457.00;;;13.10
23208;BMP180;11773;52.570;13.052;2023-02-13T07:16:22;103441.00;;;13.10
23208;BMP180;11773;52.570;13.052;2023-02-13T07:18:52;103449.00;;;13.10
23208;BMP180;11773;52.570;13.052;2023-02-13T07:21:21;103467.00;;;13.10
23208;BMP180;11773;52.570;13.052;2023-02-13T07:23:52;103468.00;;;13.10
23208;BMP180;11773;52.570;13.052;2023-02-13T07:26:21;103465.00;;;13.10
23208;BMP180;11773;52.570;13.052;2023-02-13T07:28:51;103457.00;;;13.10
23208;BMP180;11773;52.570;13.052;2023-02-13T07:31:22;103455.00;;;13.10
23208;BMP180;11773;52.570;13.052;2023-02-13T07:33:52;103452.00;;;13.10
23208;BMP180;11773;52.570;13.052;2023-02-13T07:36:21;103453.00;;;13.10
23208;BMP180;11773;52.570;13.052;2023-02-13T07:38:51;103472.00;;;13.10
23208;BMP180;11773;52.570;13.052;2023-02-13T07:41:21;103464.00;;;13.10
23208;BMP180;11773;52.570;13.052;2023-02-13T07:43:53;103476.00;;;13.10
23208;BMP180;11773;52.570;13.052;2023-02-13T07:46:22;103476.00;;;13.10
23208;BMP180;11773;52.570;13.052;2023-02-13T07:48:52;103475.00;;;13.10
23208;BMP180;11773;52.570;13.052;2023-02-13T07:51:22;103465.00;;;13.10
23208;BMP180;11773;52.570;13.052;2023-02-13T07:53:56;103457.00;;;13.10
23208;BMP180;11773;52.570;13.052;2023-02-13T07:56:25;103462.00;;;13.10
23208;BMP180;11773;52.570;13.052;2023-02-13T07:58:55;103453.00;;;13.10
23208;BMP180;11773;52.570;13.052;2023-02-13T08:01:24;103462.00;;;13.10
23208;BMP180;11773;52.570;13.052;2023-02-13T08:03:54;103464.00;;;13.10
23208;BMP180;11773;52.570;13.052;2023-02-13T08:06:24;103470.00;;;13.10
23208;BMP180;11773;52.570;13.052;2023-02-13T08:08:53;103460.00;;;13.10
23208;BMP180;11773;52.570;13.052;2023-02-13T08:11:30;103462.00;;;13.10
23208;BMP180;11773;52.570;13.052;2023-02-13T08:14:16;103465.00;;;13.10
23208;BMP180;11773;52.570;13.052;2023-02-13T08:16:45;103459.00;;;13.10
23208;BMP180;11773;52.570;13.052;2023-02-13T08:19:15;103475.00;;;13.10
23208;BMP180;11773;52.570;13.052;2023-02-13T08:21:45;103462.00;;;13.20
23208;BMP180;11773;52.570;13.052;2023-02-13T08:24:14;103466.00;;;13.20
23208;BMP180;11773;52.570;13.052;2023-02-13T08:26:44;103471.00;;;13.20
23208;BMP180;11773;52.570;13.052;2023-02-13T08:29:13;103475.00;;;13.20
23208;BMP180;11773;52.570;13.052;2023-02-13T08:31:43;103470.00;;;13.20
23208;BMP180;11773;52.570;13.052;2023-02-13T08:34:12;103459.00;;;13.30
23208;BMP180;11773;52.570;13.052;2023-02-13T08:36:42;103468.00;;;13.30
23208;BMP180;11773;52.570;13.052;2023-02-13T08:39:12;103479.00;;;13.30
23208;BMP180;11773;52.570;13.052;2023-02-13T08:41:41;103465.00;;;13.30
23208;BMP180;11773;52.570;13.052;2023-02-13T08:44:11;103478.00;;;13.30
23208;BMP180;11773;52.570;13.052;2023-02-13T08:46:40;103463.00;;;13.30
23208;BMP180;11773;52.570;13.052;2023-02-13T08:49:09;103480.00;;;13.30
23208;BMP180;11773;52.570;13.052;2023-02-13T08:51:39;103486.00;;;13.30
23208;BMP180;11773;52.570;13.052;2023-02-13T08:54:08;103471.00;;;13.30
23208;BMP180;11773;52.570;13.052;2023-02-13T08:56:38;103470.00;;;13.30
23208;BMP180;11773;52.570;13.052;2023-02-13T08:59:07;103462.00;;;13.30
23208;BMP180;11773;52.570;13.052;2023-02-13T09:01:37;103477.00;;;13.40
23208;BMP180;11773;52.570;13.052;2023-02-13T09:04:06;103468.00;;;13.40
23208;BMP180;11773;52.570;13.052;2023-02-13T09:06:36;103470.00;;;13.40
23208;BMP180;11773;52.570;13.052;2023-02-13T09:09:05;103475.00;;;13.40
23208;BMP180;11773;52.570;13.052;2023-02-13T09:11:35;103476.00;;;13.40
23208;BMP180;11773;52.570;13.052;2023-02-13T09:14:04;103476.00;;;13.40
23208;BMP180;11773;52.570;13.052;2023-02-13T09:16:34;103480.00;;;13.40
23208;BMP180;11773;52.570;13.052;2023-02-13T09:19:03;103495.00;;;13.40
23208;BMP180;11773;52.570;13.052;2023-02-13T09:21:33;103484.00;;;13.40
23208;BMP180;11773;52.570;13.052;2023-02-13T09:24:08;103489.00;;;13.40
23208;BMP180;11773;52.570;13.052;2023-02-13T09:26:37;103482.00;;;13.40
23208;BMP180;11773;52.570;13.052;2023-02-13T09:29:07;103491.00;;;13.40
23208;BMP180;11773;52.570;13.052;2023-02-13T09:31:36;103473.00;;;13.40
23208;BMP180;11773;52.570;13.052;2023-02-13T09:34:06;103485.00;;;13.40
23208;BMP180;11773;52.570;13.052;2023-02-13T09:36:36;103493.00;;;13.40
23208;BMP180;11773;52.570;13.052;2023-02-13T09:39:05;103495.00;;;13.40
23208;BMP180;11773;52.570;13.052;2023-02-13T09:41:41;103487.00;;;13.40
23208;BMP180;11773;52.570;13.052;2023-02-13T09:44:18;103501.00;;;13.40
23208;BMP180;11773;52.570;13.052;2023-02-13T09:47:35;103500.00;;;13.40
23208;BMP180;11773;52.570;13.052;2023-02-13T09:50:25;103492.00;;;13.40
23208;BMP180;11773;52.570;13.052;2023-02-13T09:52:58;103493.00;;;13.40
23208;BMP180;11773;52.570;13.052;2023-02-13T09:55:42;103501.00;;;13.40
23208;BMP180;11773;52.570;13.052;2023-02-13T09:58:46;103484.00;;;13.40
23208;BMP180;11773;52.570;13.052;2023-02-13T10:06:36;103494.00;;;13.40
23208;BMP180;11773;52.570;13.052;2023-02-13T10:12:39;103495.00;;;13.40
23208;BMP180;11773;52.570;13.052;2023-02-13T10:17:58;103492.00;;;13.40
23208;BMP180;11773;52.570;13.052;2023-02-13T10:20:50;103502.00;;;13.40
23208;BMP180;11773;52.570;13.052;2023-02-13T10:23:44;103502.00;;;13.40
23208;BMP180;11773;52.570;13.052;2023-02-13T10:26:31;103498.00;;;13.40
23208;BMP180;11773;52.570;13.052;2023-02-13T10:29:20;103493.00;;;13.40
23208;BMP180;11773;52.570;13.052;2023-02-13T10:32:11;103493.00;;;13.40
23208;BMP180;11773;52.570;13.052;2023-02-13T10:34:47;103491.00;;;13.50
23208;BMP180;11773;52.570;13.052;2023-02-13T10:37:21;103484.00;;;13.50
23208;BMP180;11773;52.570;13.052;2023-02-13T10:39:52;103486.00;;;13.50
23208;BMP180;11773;52.570;13.052;2023-02-13T10:42:31;103479.00;;;13.60
23208;BMP180;11773;52.570;13.052;2023-02-13T10:45:15;103471.00;;;13.60
23208;BMP180;11773;52.570;13.052;2023-02-13T10:50:52;103466.00;;;13.60
23208;BMP180;11773;52.570;13.052;2023-02-13T10:59:36;103472.00;;;13.60
23208;BMP180;11773;52.570;13.052;2023-02-13T11:02:27;103462.00;;;13.60
23208;BMP180;11773;52.570;13.052;2023-02-13T11:05:20;103482.00;;;13.60
23208;BMP180;11773;52.570;13.052;2023-02-13T11:07:49;103474.00;;;13.60
23208;BMP180;11773;52.570;13.052;2023-02-13T11:10:25;103459.00;;;13.60
23208;BMP180;11773;52.570;13.052;2023-02-13T11:12:55;103468.00;;;13.60
23208;BMP180;11773;52.570;13.052;2023-02-13T11:15:31;103464.00;;;13.60
23208;BMP180;11773;52.570;13.052;2023-02-13T11:18:17;103465.00;;;13.70
23208;BMP180;11773;52.570;13.052;2023-02-13T11:20:43;103461.00;;;13.60
23208;BMP180;11773;52.570;13.052;2023-02-13T11:23:34;103457.00;;;13.70
23208;BMP180;11773;52.570;13.052;2023-02-13T11:26:27;103452.00;;;13.70
23208;BMP180;11773;52.570;13.052;2023-02-13T11:28:59;103452.00;;;13.70
23208;BMP180;11773;52.570;13.052;2023-02-13T11:31:36;103449.00;;;13.70
23208;BMP180;11773;52.570;13.052;2023-02-13T11:34:26;103446.00;;;13.70
23208;BMP180;11773;52.570;13.052;2023-02-13T11:37:17;103445.00;;;13.70
23208;BMP180;11773;52.570;13.052;2023-02-13T11:39:51;103443.00;;;13.60
23208;BMP180;11773;52.570;13.052;2023-02-13T11:42:35;103437.00;;;13.70
23208;BMP180;11773;52.570;13.052;2023-02-13T11:45:23;103432.00;;;13.70
23208;BMP180;11773;52.570;13.052;2023-02-13T11:47:55;103437.00;;;13.70
23208;BMP180;11773;52.570;13.052;2023-02-13T11:50:29;103424.00;;;13.70
23208;BMP180;11773;52.570;13.052;2023-02-13T11:53:05;103422.00;;;13.80
23208;BMP180;11773;52.570;13.052;2023-02-13T11:55:40;103421.00;;;13.80
23208;BMP180;11773;52.570;13.052;2023-02-13T11:58:22;103433.00;;;13.80
23208;BMP180;11773;52.570;13.052;2023-02-13T12:04:19;103420.00;;;13.80
23208;BMP180;11773;52.570;13.052;2023-02-13T12:07:26;103416.00;;;13.80
23208;BMP180;11773;52.570;13.052;2023-02-13T12:10:28;103419.00;;;13.80
23208;BMP180;11773;52.570;13.052;2023-02-13T12:15:40;103427.00;;;13.80
23208;BMP180;11773;52.570;13.052;2023-02-13T12:18:34;103427.00;;;13.80
23208;BMP180;11773;52.570;13.052;2023-02-13T12:24:09;103432.00;;;13.90
23208;BMP180;11773;52.570;13.052;2023-02-13T12:26:47;103423.00;;;13.90
23208;BMP180;11773;52.570;13.052;2023-02-13T12:35:31;103420.00;;;13.90
23208;BMP180;11773;52.570;13.052;2023-02-13T12:41:12;103426.00;;;13.80
23208;BMP180;11773;52.570;13.052;2023-02-13T12:47:08;103439.00;;;13.80
23208;BMP180;11773;52.570;13.052;2023-02-13T12:49:50;103436.00;;;13.80
23208;BMP180;11773;52.570;13.052;2023-02-13T12:52:55;103444.00;;;13.80
23208;BMP180;11773;52.570;13.052;2023-02-13T12:58:46;103439.00;;;13.70
23208;BMP180;11773;52.570;13.052;2023-02-13T13:02:29;103447.00;;;13.70
23208;BMP180;11773;52.570;13.052;2023-02-13T13:04:41;103447.00;;;13.70
23208;BMP180;11773;52.570;13.052;2023-02-13T13:07:30;103448.00;;;13.70
23208;BMP180;11773;52.570;13.052;2023-02-13T13:13:35;103421.00;;;13.70
23208;BMP180;11773;52.570;13.052;2023-02-13T13:16:24;103430.00;;;13.70
23208;BMP180;11773;52.570;13.052;2023-02-13T13:19:10;103420.00;;;13.70
23208;BMP180;11773;52.570;13.052;2023-02-13T13:22:04;103412.00;;;13.70
23208;BMP180;11773;52.570;13.052;2023-02-13T13:27:34;103413.00;;;13.70
23208;BMP180;11773;52.570;13.052;2023-02-13T13:32:45;103421.00;;;13.70
23208;BMP180;11773;52.570;13.052;2023-02-13T13:35:18;103422.00;;;13.80
23208;BMP180;11773;52.570;13.052;2023-02-13T13:38:13;103432.00;;;13.80
23208;BMP180;11773;52.570;13.052;2023-02-13T13:41:08;103417.00;;;13.70
23208;BMP180;11773;52.570;13.052;2023-02-13T13:44:02;103421.00;;;13.70
23208;BMP180;11773;52.570;13.052;2023-02-13T13:49:23;103410.00;;;13.70
23208;BMP180;11773;52.570;13.052;2023-02-13T13:51:50;103409.00;;;13.70
23208;BMP180;11773;52.570;13.052;2023-02-13T13:54:32;103410.00;;;13.70
23208;BMP180;11773;52.570;13.052;2023-02-13T13:57:03;103423.00;;;13.70
23208;BMP180;11773;52.570;13.052;2023-02-13T14:05:24;103400.00;;;13.80
23208;BMP180;11773;52.570;13.052;2023-02-13T14:08:00;103402.00;;;13.70
23208;BMP180;11773;52.570;13.052;2023-02-13T14:13:06;103412.00;;;13.80
23208;BMP180;11773;52.570;13.052;2023-02-13T14:15:48;103416.00;;;13.80
23208;BMP180;11773;52.570;13.052;2023-02-13T14:18:21;103418.00;;;13.80
23208;BMP180;11773;52.570;13.052;2023-02-13T14:21:00;103389.00;;;13.80
23208;BMP180;11773;52.570;13.052;2023-02-13T14:23:46;103391.00;;;13.90
23208;BMP180;11773;52.570;13.052;2023-02-13T14:26:39;103382.00;;;13.90
23208;BMP180;11773;52.570;13.052;2023-02-13T14:29:28;103400.00;;;13.90
23208;BMP180;11773;52.570;13.052;2023-02-13T14:34:56;103374.00;;;13.90
23208;BMP180;11773;52.570;13.052;2023-02-13T14:37:46;103373.00;;;13.90
23208;BMP180;11773;52.570;13.052;2023-02-13T14:42:53;103363.00;;;13.90
23208;BMP180;11773;52.570;13.052;2023-02-13T14:45:30;103359.00;;;13.90
23208;BMP180;11773;52.570;13.052;2023-02-13T14:48:10;103367.00;;;13.90
23208;BMP180;11773;52.570;13.052;2023-02-13T14:50:52;103369.00;;;13.90
23208;BMP180;11773;52.570;13.052;2023-02-13T14:53:29;103369.00;;;13.90
23208;BMP180;11773;52.570;13.052;2023-02-13T14:56:11;103358.00;;;13.90
23208;BMP180;11773;52.570;13.052;2023-02-13T14:58:54;103368.00;;;14.00
23208;BMP180;11773;52.570;13.052;2023-02-13T15:01:34;103374.00;;;14.00
23208;BMP180;11773;52.570;13.052;2023-02-13T15:06:43;103364.00;;;14.00
23208;BMP180;11773;52.570;13.052;2023-02-13T15:09:40;103363.00;;;14.00
23208;BMP180;11773;52.570;13.052;2023-02-13T15:14:59;103366.00;;;13.90
23208;BMP180;11773;52.570;13.052;2023-02-13T15:17:34;103364.00;;;13.90
23208;BMP180;11773;52.570;13.052;2023-02-13T15:20:22;103362.00;;;13.90
23208;BMP180;11773;52.570;13.052;2023-02-13T15:22:52;103368.00;;;13.90
23208;BMP180;11773;52.570;13.052;2023-02-13T15:25:37;103361.00;;;13.90
23208;BMP180;11773;52.570;13.052;2023-02-13T15:28:27;103374.00;;;13.90
23208;BMP180;11773;52.570;13.052;2023-02-13T15:31:04;103366.00;;;13.90
23208;BMP180;11773;52.570;13.052;2023-02-13T15:33:46;103361.00;;;13.90
23208;BMP180;11773;52.570;13.052;2023-02-13T15:36:24;103340.00;;;13.90
23208;BMP180;11773;52.570;13.052;2023-02-13T15:39:04;103345.00;;;14.00
23208;BMP180;11773;52.570;13.052;2023-02-13T15:41:50;103317.00;;;14.00
23208;BMP180;11773;52.570;13.052;2023-02-13T15:44:29;103326.00;;;13.90
23208;BMP180;11773;52.570;13.052;2023-02-13T15:47:14;103337.00;;;14.00
23208;BMP180;11773;52.570;13.052;2023-02-13T15:49:45;103320.00;;;13.90
23208;BMP180;11773;52.570;13.052;2023-02-13T15:52:33;103322.00;;;13.90
23208;BMP180;11773;52.570;13.052;2023-02-13T15:55:03;103322.00;;;13.90
23208;BMP180;11773;52.570;13.052;2023-02-13T15:57:33;103323.00;;;13.90
23208;BMP180;11773;52.570;13.052;2023-02-13T16:00:04;103322.00;;;14.00
23208;BMP180;11773;52.570;13.052;2023-02-13T16:02:44;103314.00;;;14.00
23208;BMP180;11773;52.570;13.052;2023-02-13T16:05:16;103335.00;;;14.00
23208;BMP180;11773;52.570;13.052;2023-02-13T16:07:54;103336.00;;;13.90
23208;BMP180;11773;52.570;13.052;2023-02-13T16:10:30;103334.00;;;13.90
23208;BMP180;11773;52.570;13.052;2023-02-13T16:13:06;103332.00;;;13.90
23208;BMP180;11773;52.570;13.052;2023-02-13T16:15:37;103329.00;;;13.90
23208;BMP180;11773;52.570;13.052;2023-02-13T16:18:18;103327.00;;;13.90
23208;BMP180;11773;52.570;13.052;2023-02-13T16:20:52;103335.00;;;13.90
23208;BMP180;11773;52.570;13.052;2023-02-13T16:23:22;103327.00;;;13.90
23208;BMP180;11773;52.570;13.052;2023-02-13T16:25:52;103328.00;;;13.90
23208;BMP180;11773;52.570;13.052;2023-02-13T16:28:28;103328.00;;;13.90